Local Weather Ingen bokad jour idag Sunday 11th of December
Flygplats METAR TAF
Airport METAR TAF
ESSL - Linköping102350Z AUTO 30004KT 1000 R11/P2000N R29/P2000N UP OVC001/// 02/02 Q1007 RESG= NO VALID TAF PUBLISHED
ESSP - Norrköping102350Z AUTO 06004KT 2600 BR OVC002/// 01/01 Q1007= NO VALID TAF PUBLISHED
ESGJ - Jönköping102350Z AUTO 24004KT 9999 OVC008/// 05/04 Q1006= NO VALID TAF PUBLISHED
ESKN - Skavsta102350Z 12009KT 4800 -RASN BR BKN003 01/00 Q1007 RWY 26 SLUSH 51-100 PCT 1 MM FCT 0.49= 102330Z 1100/1124 12009KT 6000 -SNRA SCT005 BKN015 TEMPO 1100/1106 1200 BR DZ BKN003 BECMG 1106/1108 1400 SN VV009 TEMPO 1108/1118 5000 -SN BKN020 BECMG 1118/1120 04010KT 9999 NSW BKN030=
ESSV - Visby102350Z AUTO 12013KT 3500 -SN BKN004/// OVC022/// 01/01 Q1007= NO VALID TAF PUBLISHED
ESGG - Göteborg102320Z 26010KT 6000 BR OVC003 06/05 Q1007 RWY 21 WET OR WATER PATCHES 51-100 PCT BA GOOD= 102330Z 1100/1124 23006KT 6000 BR BKN004 PROB40 1100/1109 1400 BKN006 BECMG 1109/1111 29010KT SCT010 BKN020 TEMPO 1111/1121 4000 BKN004 BECMG 1114/1116 35006KT BECMG 1119/1121 05012KT=